Myrtle Beach, SC

1:46 AM EDT on October 02, 2014 (GMT -0400)
Green Lake | Change Station
CLOSE
Current Station
Personal Weather Station
Location: Myrtle Beach, SC
Elevation: 11 m
Nearby Weather Stations

Elev 11 m 33.78 °N, 78.78 °W | Updated 4 seconds ago

Partly Cloudy
Partly Cloudy
20.2 °C
Feels Like 20.2 °C
N
0.0
Wind Variable Wind from South
Gusts 0.0 km/h

Today
High -- | Low -- °C
--% Chance of Precip.
Yesterday
High -- | Low -- °C
Precip. -- mm
7:10 AM 6:58 PM
First Quarter, 55% visible
Pressure 1017 hPa
Visibility 8.0 kilometers
Clouds Scattered Clouds 2590 m
Dew Point 19 °C
Humidity 95%
Rainfall 0 mm
Snow Depth Not available.
UV 0.0 out of 12
Pollen 5.60 out of 12
Air Quality Not available.
Flu Activity Not available.
METAR KCRE 020453Z AUTO 00000KT 5SM BR SCT085 19/18 A3003 RMK AO2 SLP170 T01890183 402670167 TSNO

More Conditions Fewer Conditions

Pressure 1017 hPa
Visibility 8.0 kilometers
Clouds Scattered Clouds 2590 m
Dew Point 19 °C
Humidity 95%
Rainfall 0 mm
Snow Depth Not available.
UV 0.0 out of 12
Pollen 5.60 out of 12
Air Quality Not available.
Flu Activity Not available.
METAR KCRE 020453Z AUTO 00000KT 5SM BR SCT085 19/18 A3003 RMK AO2 SLP170 T01890183 402670167 TSNO

More Conditions Fewer Conditions

10-Day Weather Forecast

Almanac

Astronomy

Oct. 02, 2014 Rise Set
Actual Time 7:10 AM EDT 6:58 PM EDT
Civil Twilight 6:45 AM EDT 7:23 PM EDT
Nautical Twilight 6:16 AM EDT 7:51 PM EDT
Astronomical Twilight 5:47 AM EDT 8:20 PM EDT
Moon 2:48 PM EDT 12:40 AM EDT
Length of Visible Light 12h 37m
Length of Day
11h 47m
Tomorrow will be 2m 4s shorter.
First Quarter, 55% of the Moon is Illuminated
Today
First Quarter
Oct 8
Full
Oct 15
Last Quarter
Oct 23
New
Oct 30
First Quarter

Today's Extremes

State Highs State Lows

Community

WunderPhotos

Upload Photos

1,758,197 photos uploaded!

Nearby

Snow Depth

Station Depth Elevation
No new snow has been reported.

Earthquake Activity

City Distance Mag. Time & Date
No recent earthquake activity has been reported nearby.
Minimum magnitude displayed is 2.5.

Coastal Water Temperatures

Place Temperature
Springmaid Pier, SC 24.4 °C

Nearby Weather Stations